Time;durP1;ratioP1;P1;durP2;ratioP2;P2;SDS_P1;SDS_P2;PMS_P1;PMS_P2;Temp;Humidity;BMP_temperature;BMP_pressure;BME280_temperature;BME280_humidity;BME280_pressure;Samples;Min_cycle;Max_cycle;Signal;HPM_P1;HPM_P2
2023/06/21 00:02:19;;;;;;;23.40;18.05;;;20.60;99.90;;;;;;5076099;28;20120;-69
2023/06/21 00:04:45;;;;;;;24.13;19.20;;;20.60;99.90;;;;;;5076107;28;20024;-68
2023/06/21 00:07:11;;;;;;;26.15;20.15;;;20.50;99.90;;;;;;5075555;28;20025;-68
2023/06/21 00:09:36;;;;;;;21.23;18.55;;;20.50;99.90;;;;;;5075782;28;20028;-69
2023/06/21 00:12:02;;;;;;;23.27;18.95;;;20.40;99.90;;;;;;5075854;28;20434;-68
2023/06/21 00:14:27;;;;;;;25.38;19.77;;;20.40;99.90;;;;;;5075602;28;20367;-68
2023/06/21 00:16:53;;;;;;;29.52;21.38;;;20.30;99.90;;;;;;5075674;28;20028;-69
2023/06/21 00:19:18;;;;;;;27.65;22.95;;;20.20;99.90;;;;;;5075665;28;20028;-69
2023/06/21 00:21:44;;;;;;;29.75;23.80;;;20.10;99.90;;;;;;5075480;28;20129;-68
2023/06/21 00:24:10;;;;;;;33.80;26.63;;;20.10;99.90;;;;;;5075801;28;20025;-68
2023/06/21 00:26:35;;;;;;;36.28;28.00;;;20.10;99.90;;;;;;5075643;28;20032;-68
2023/06/21 00:29:01;;;;;;;37.17;29.48;;;20.10;99.90;;;;;;5075504;28;20482;-69
2023/06/21 00:31:27;;;;;;;39.42;30.48;;;20.10;99.90;;;;;;5075526;28;20028;-68
2023/06/21 00:33:52;;;;;;;43.58;31.17;;;20.10;99.90;;;;;;5075086;28;20030;-69
2023/06/21 00:36:18;;;;;;;39.92;30.70;;;20.10;99.90;;;;;;5075261;28;20028;-68
2023/06/21 00:38:43;;;;;;;42.63;32.60;;;20.00;99.90;;;;;;5075317;28;20531;-69
2023/06/21 00:41:09;;;;;;;47.22;34.65;;;20.00;99.90;;;;;;5074975;28;20041;-69
2023/06/21 00:43:35;;;;;;;44.78;33.42;;;20.00;99.90;;;;;;5075398;28;20055;-68
2023/06/21 00:46:00;;;;;;;49.08;36.17;;;20.00;99.90;;;;;;5075235;28;20085;-69
2023/06/21 00:48:28;;;;;;;45.25;35.70;;;19.90;99.90;;;;;;5075061;28;20075;-69
2023/06/21 00:50:55;;;;;;;51.65;37.90;;;19.90;99.90;;;;;;5074994;28;20398;-69
2023/06/21 00:53:21;;;;;;;53.78;39.55;;;19.80;99.90;;;;;;5075120;28;20028;-69
2023/06/21 00:55:47;;;;;;;55.22;40.63;;;19.80;99.90;;;;;;5074886;28;20375;-69
2023/06/21 00:58:14;;;;;;;57.72;40.70;;;19.80;99.90;;;;;;5074889;28;20074;-69
2023/06/21 01:00:41;;;;;;;59.97;41.72;;;19.80;99.90;;;;;;5074768;28;20029;-69
2023/06/21 01:03:07;;;;;;;58.45;41.00;;;19.80;99.90;;;;;;5074790;28;20043;-69
2023/06/21 01:05:34;;;;;;;58.35;42.35;;;19.80;99.90;;;;;;5074806;28;20043;-68
2023/06/21 01:08:30;;;;;;;58.13;42.38;;;19.80;99.90;;;;;;5074630;28;20020;-68
2023/06/21 01:11:17;;;;;;;61.92;42.63;;;19.70;99.90;;;;;;5074518;28;20444;-68
2023/06/21 01:14:00;;;;;;;57.47;41.40;;;19.70;99.90;;;;;;5074619;28;20020;-68
2023/06/21 01:16:34;;;;;;;59.45;42.33;;;19.60;99.90;;;;;;5074651;28;20390;-68
2023/06/21 01:19:01;;;;;;;62.88;42.85;;;19.60;99.90;;;;;;5074787;28;20036;-69
2023/06/21 01:21:28;;;;;;;56.22;41.80;;;19.60;99.90;;;;;;5074257;28;20029;-68
2023/06/21 01:24:26;;;;;;;58.97;41.90;;;19.60;99.90;;;;;;5074732;28;20470;-69
2023/06/21 01:27:17;;;;;;;60.47;41.72;;;19.50;99.90;;;;;;5074169;28;20024;-69
2023/06/21 01:29:47;;;;;;;55.97;41.00;;;19.50;99.90;;;;;;5074326;28;20032;-68
2023/06/21 01:32:13;;;;;;;59.20;43.60;;;19.50;99.90;;;;;;5074191;28;20078;-68
2023/06/21 01:34:40;;;;;;;59.75;42.92;;;19.40;99.90;;;;;;5074166;28;20497;-69
2023/06/21 01:37:08;;;;;;;60.75;43.80;;;19.40;99.90;;;;;;5074297;28;20031;-68
2023/06/21 01:39:34;;;;;;;62.92;45.00;;;19.40;99.90;;;;;;5073914;28;20052;-68
2023/06/21 01:42:00;;;;;;;65.78;47.50;;;19.30;99.90;;;;;;5073860;28;20020;-69
2023/06/21 01:44:26;;;;;;;68.32;47.75;;;19.30;99.90;;;;;;5073887;28;20393;-69
2023/06/21 01:46:55;;;;;;;66.57;48.10;;;19.40;99.90;;;;;;5073845;28;20024;-68
2023/06/21 01:49:22;;;;;;;71.07;46.72;;;19.30;99.90;;;;;;5073851;28;20539;-69
2023/06/21 01:51:48;;;;;;;63.38;45.03;;;19.30;99.90;;;;;;5073837;28;20063;-68
2023/06/21 01:54:15;;;;;;;61.60;43.85;;;19.20;99.90;;;;;;5073805;28;20066;-68
2023/06/21 01:56:43;;;;;;;67.53;46.13;;;19.20;99.90;;;;;;5072651;28;20112;-68
2023/06/21 01:59:09;;;;;;;68.55;46.85;;;19.10;99.90;;;;;;5073735;28;20368;-68
2023/06/21 02:01:37;;;;;;;62.00;44.92;;;19.10;99.90;;;;;;5073735;28;20020;-68
2023/06/21 02:04:05;;;;;;;62.25;45.20;;;19.10;99.90;;;;;;5073710;28;20470;-68
2023/06/21 02:06:33;;;;;;;64.60;45.17;;;19.10;99.90;;;;;;5073951;28;20474;-68
2023/06/21 02:08:59;;;;;;;67.90;45.00;;;19.00;99.90;;;;;;5073664;28;20074;-68
2023/06/21 02:11:27;;;;;;;66.82;46.00;;;19.00;99.90;;;;;;5073343;28;20029;-68
2023/06/21 02:13:52;;;;;;;64.28;43.33;;;18.90;99.90;;;;;;5073514;28;20595;-68
2023/06/21 02:16:26;;;;;;;61.65;41.90;;;18.90;99.90;;;;;;5073520;28;20066;-68
2023/06/21 02:18:52;;;;;;;59.00;41.72;;;18.90;99.90;;;;;;5073422;28;20028;-68
2023/06/21 02:21:19;;;;;;;56.35;41.10;;;18.90;99.90;;;;;;5073323;28;20058;-68
2023/06/21 02:23:44;;;;;;;58.00;40.65;;;18.90;99.90;;;;;;5073393;28;20025;-68
2023/06/21 02:26:10;;;;;;;51.97;37.38;;;18.90;99.90;;;;;;5073513;28;20024;-68
2023/06/21 02:28:36;;;;;;;57.63;39.70;;;18.90;99.90;;;;;;5073587;28;20047;-68
2023/06/21 02:31:01;;;;;;;47.45;35.83;;;18.80;99.90;;;;;;5073352;28;20035;-68
2023/06/21 02:33:27;;;;;;;56.67;38.63;;;18.80;99.90;;;;;;5073399;28;20033;-68
2023/06/21 02:35:52;;;;;;;57.92;39.60;;;18.80;99.90;;;;;;5073394;28;20028;-68
2023/06/21 02:38:19;;;;;;;51.25;35.95;;;18.80;99.90;;;;;;5073198;28;20029;-68
2023/06/21 02:40:45;;;;;;;47.05;34.55;;;18.70;99.90;;;;;;5072931;28;20517;-68
2023/06/21 02:43:10;;;;;;;52.90;35.67;;;18.70;99.90;;;;;;5073327;28;20029;-69
2023/06/21 02:45:36;;;;;;;47.10;34.83;;;18.70;99.90;;;;;;5073260;28;20031;-68
2023/06/21 02:48:04;;;;;;;42.75;31.73;;;18.60;99.90;;;;;;5073356;28;20025;-68
2023/06/21 02:50:29;;;;;;;52.90;36.17;;;18.60;99.90;;;;;;5073229;28;20113;-68
2023/06/21 02:52:55;;;;;;;45.58;33.10;;;18.50;99.90;;;;;;5073114;28;20641;-69
2023/06/21 02:55:21;;;;;;;40.13;28.98;;;18.50;99.90;;;;;;5072057;28;20052;-69
2023/06/21 02:57:46;;;;;;;37.13;27.95;;;18.60;99.90;;;;;;5073027;28;20115;-68
2023/06/21 03:00:23;;;;;;;32.53;26.08;;;18.60;99.90;;;;;;5073067;28;20112;-68
2023/06/21 03:02:50;;;;;;;33.50;25.23;;;18.50;99.90;;;;;;5073010;28;20420;-68
2023/06/21 03:05:16;;;;;;;28.83;23.08;;;18.50;99.90;;;;;;5072758;28;20024;-69
2023/06/21 03:07:45;;;;;;;32.67;23.98;;;18.50;99.90;;;;;;5072966;28;20033;-69
2023/06/21 03:10:12;;;;;;;26.35;21.42;;;18.40;99.90;;;;;;5073118;28;20020;-69
2023/06/21 03:12:41;;;;;;;28.98;21.08;;;18.40;99.90;;;;;;5073094;28;20035;-69
2023/06/21 03:15:08;;;;;;;29.38;21.48;;;18.40;99.90;;;;;;5073155;28;20032;-69
2023/06/21 03:17:34;;;;;;;29.23;21.38;;;18.40;99.90;;;;;;5072976;28;20028;-69
2023/06/21 03:19:59;;;;;;;26.63;20.80;;;18.40;99.90;;;;;;5072464;28;20035;-69
2023/06/21 03:22:25;;;;;;;25.73;19.15;;;18.40;99.90;;;;;;5073518;28;20075;-68
2023/06/21 03:24:50;;;;;;;28.23;18.88;;;18.40;99.90;;;;;;5076602;28;20024;-68
2023/06/21 03:27:16;;;;;;;22.98;17.67;;;18.40;99.90;;;;;;5076564;28;20558;-68
2023/06/21 03:29:41;;;;;;;23.80;17.42;;;18.50;99.90;;;;;;5076561;28;20029;-68
2023/06/21 03:32:07;;;;;;;24.13;16.65;;;18.40;99.90;;;;;;5076951;28;20060;-68
2023/06/21 03:34:32;;;;;;;24.60;15.88;;;18.50;99.90;;;;;;5076899;28;20060;-68
2023/06/21 03:36:58;;;;;;;23.10;16.60;;;18.50;99.90;;;;;;5076355;28;20025;-68
2023/06/21 03:39:23;;;;;;;23.48;16.55;;;18.60;99.90;;;;;;5076339;28;20032;-68
2023/06/21 03:41:49;;;;;;;20.83;16.27;;;18.60;99.90;;;;;;5076212;28;20414;-68
2023/06/21 03:44:14;;;;;;;25.55;17.15;;;18.60;99.90;;;;;;5076286;28;20032;-68
2023/06/21 03:46:40;;;;;;;22.33;15.52;;;18.70;99.90;;;;;;5076081;28;20029;-68
2023/06/21 03:49:05;;;;;;;24.02;15.35;;;18.70;99.90;;;;;;5076250;28;20028;-68
2023/06/21 03:51:31;;;;;;;22.33;15.77;;;18.80;99.90;;;;;;5075886;28;20033;-68
2023/06/21 03:53:57;;;;;;;18.58;15.63;;;18.80;99.90;;;;;;5076050;28;20531;-69
2023/06/21 03:56:22;;;;;;;20.73;14.45;;;18.80;99.90;;;;;;5076174;28;20036;-68
2023/06/21 03:58:48;;;;;;;22.00;14.30;;;18.80;99.90;;;;;;5075903;28;20036;-68
2023/06/21 04:01:13;;;;;;;19.13;14.27;;;18.90;99.90;;;;;;5075941;28;20031;-68
2023/06/21 04:03:39;;;;;;;18.98;14.40;;;18.90;99.90;;;;;;5075910;28;20477;-67
2023/06/21 04:06:04;;;;;;;19.15;14.27;;;18.90;99.90;;;;;;5074673;28;20423;-68
2023/06/21 04:08:30;;;;;;;18.73;13.77;;;18.90;99.90;;;;;;5075780;28;20021;-68
2023/06/21 04:10:55;;;;;;;15.75;13.15;;;18.90;99.90;;;;;;5075941;28;20055;-68
2023/06/21 04:13:21;;;;;;;18.88;13.95;;;19.00;99.90;;;;;;5075772;28;20032;-68
2023/06/21 04:15:47;;;;;;;18.50;13.38;;;19.00;99.90;;;;;;5075889;28;20063;-68
2023/06/21 04:18:12;;;;;;;17.35;12.30;;;19.00;99.90;;;;;;5075723;28;20024;-68
2023/06/21 04:20:38;;;;;;;17.70;13.68;;;19.00;99.90;;;;;;5075657;28;20067;-68
2023/06/21 04:23:03;;;;;;;16.35;13.73;;;19.10;99.90;;;;;;5075738;28;20021;-68
2023/06/21 04:25:29;;;;;;;18.23;12.85;;;19.20;99.90;;;;;;5075373;28;20084;-68
2023/06/21 04:27:54;;;;;;;19.30;13.35;;;19.20;99.90;;;;;;5074769;28;20021;-68
2023/06/21 04:30:20;;;;;;;18.17;13.55;;;19.40;99.90;;;;;;5075000;28;20027;-69
2023/06/21 04:32:46;;;;;;;16.42;12.75;;;19.50;99.90;;;;;;5075428;28;20024;-69
2023/06/21 04:35:14;;;;;;;17.17;12.02;;;19.80;99.90;;;;;;5075027;28;20020;-69
2023/06/21 04:37:44;;;;;;;15.63;11.70;;;20.10;99.90;;;;;;5075383;28;20103;-69
2023/06/21 04:40:12;;;;;;;14.93;10.95;;;20.20;97.90;;;;;;5075021;28;20076;-69
2023/06/21 04:42:38;;;;;;;14.60;10.88;;;20.70;90.20;;;;;;5075284;28;20111;-69
2023/06/21 04:45:04;;;;;;;13.38;9.93;;;21.20;17.70;;;;;;5075296;28;20064;-69
2023/06/21 04:47:30;;;;;;;13.60;9.65;;;21.70;1.00;;;;;;5073926;28;20021;-69
2023/06/21 04:49:55;;;;;;;12.80;8.70;;;22.30;1.00;;;;;;5075056;28;20090;-69
2023/06/21 04:52:21;;;;;;;12.45;8.85;;;22.40;1.00;;;;;;5074865;28;20025;-69
2023/06/21 04:54:46;;;;;;;13.30;9.20;;;22.30;1.00;;;;;;5075161;28;20033;-69
2023/06/21 04:57:12;;;;;;;10.93;7.80;;;22.40;1.00;;;;;;5074901;28;20021;-69
2023/06/21 04:59:38;;;;;;;12.77;8.88;;;22.50;1.00;;;;;;5074931;28;20027;-69
2023/06/21 05:02:04;;;;;;;12.07;8.77;;;22.50;1.00;;;;;;5074886;28;20471;-69
2023/06/21 05:04:30;;;;;;;13.88;8.35;;;22.60;1.00;;;;;;5074706;28;20023;-69
2023/06/21 05:06:56;;;;;;;9.93;8.35;;;22.80;1.00;;;;;;5074447;28;20029;-69
2023/06/21 05:09:22;;;;;;;8.98;7.70;;;22.90;1.00;;;;;;5074507;28;20025;-69
2023/06/21 05:11:47;;;;;;;12.80;9.32;;;22.60;1.00;;;;;;5074663;28;20120;-69
2023/06/21 05:14:13;;;;;;;12.70;8.23;;;22.20;1.00;;;;;;5074670;28;20436;-69
2023/06/21 05:16:40;;;;;;;18.77;8.82;;;22.40;1.00;;;;;;5074663;28;20044;-69
2023/06/21 05:19:06;;;;;;;10.88;8.02;;;22.90;1.00;;;;;;5074773;28;20040;-69
2023/06/21 05:21:31;;;;;;;10.38;7.97;;;23.00;1.00;;;;;;5074302;28;20387;-69
2023/06/21 05:23:57;;;;;;;12.88;8.30;;;23.10;1.00;;;;;;5074421;28;20036;-69
2023/06/21 05:26:23;;;;;;;9.45;8.45;;;23.10;1.00;;;;;;5074479;28;20025;-69
2023/06/21 05:28:48;;;;;;;10.25;7.95;;;23.40;1.00;;;;;;5074043;28;20482;-70
2023/06/21 05:31:14;;;;;;;9.98;8.50;;;22.90;1.00;;;;;;5074245;28;20020;-69
2023/06/21 05:33:39;;;;;;;13.30;8.45;;;22.50;1.00;;;;;;5074446;28;20028;-69
2023/06/21 05:36:05;;;;;;;11.38;9.00;;;22.70;1.00;;;;;;5073999;28;20025;-70
2023/06/21 05:38:31;;;;;;;13.27;9.38;;;23.00;1.00;;;;;;5074195;28;20043;-71
2023/06/21 05:40:57;;;;;;;15.30;10.15;;;23.70;1.00;;;;;;5073797;28;20052;-69
2023/06/21 05:43:22;;;;;;;11.85;9.45;;;23.60;99.90;;;;;;5074096;28;20450;-69
2023/06/21 05:45:47;;;;;;;14.30;9.57;;;23.40;1.00;;;;;;5073432;28;20024;-69
2023/06/21 05:48:13;;;;;;;11.10;8.90;;;23.50;1.00;;;;;;5073730;28;20032;-69
2023/06/21 05:50:39;;;;;;;10.52;8.65;;;23.60;1.00;;;;;;5073880;28;20068;-69
2023/06/21 05:53:04;;;;;;;13.15;8.52;;;23.80;99.90;;;;;;5074131;28;20029;-69
2023/06/21 05:55:30;;;;;;;14.57;9.38;;;24.40;99.90;;;;;;5073796;28;20032;-70
2023/06/21 05:57:55;;;;;;;11.10;8.52;;;25.10;41.00;;;;;;5073710;28;20021;-69
2023/06/21 06:00:21;;;;;;;10.40;8.15;;;25.10;99.90;;;;;;5073664;28;20020;-69
2023/06/21 06:02:46;;;;;;;12.85;8.65;;;25.70;99.90;;;;;;5073826;28;20041;-69
2023/06/21 06:05:12;;;;;;;11.55;8.27;;;25.50;99.90;;;;;;5073736;28;20029;-69
2023/06/21 06:07:38;;;;;;;12.82;8.85;;;25.50;99.90;;;;;;5073230;28;20390;-70
2023/06/21 06:10:04;;;;;;;12.43;8.07;;;25.30;1.00;;;;;;5073570;28;20028;-69
2023/06/21 06:12:30;;;;;;;11.95;8.85;;;24.80;99.90;;;;;;5073182;28;20025;-69
2023/06/21 06:14:56;;;;;;;10.55;9.02;;;25.00;32.70;;;;;;5073086;28;20110;-70
2023/06/21 06:17:21;;;;;;;12.65;8.70;;;24.60;99.90;;;;;;5073094;28;20150;-69
2023/06/21 06:19:47;;;;;;;9.63;8.60;;;25.10;94.30;;;;;;5073477;28;20064;-69
2023/06/21 06:22:12;;;;;;;10.52;8.35;;;25.20;99.90;;;;;;5072912;28;20055;-69
2023/06/21 06:24:38;;;;;;;15.82;7.85;;;25.90;99.90;;;;;;5071848;28;20043;-70
2023/06/21 06:27:04;;;;;;;12.40;9.20;;;25.70;99.90;;;;;;5072942;28;20355;-70
2023/06/21 06:29:30;;;;;;;9.52;8.57;;;25.30;1.00;;;;;;5059717;28;20032;-69
2023/06/21 06:31:56;;;;;;;11.13;9.68;;;25.80;99.90;;;;;;5056153;28;20115;-70
2023/06/21 06:34:22;;;;;;;15.15;10.52;;;25.30;1.00;;;;;;5057155;28;20108;-70
2023/06/21 06:36:47;;;;;;;13.57;8.98;;;24.30;99.90;;;;;;5058395;28;20387;-70
2023/06/21 06:39:13;;;;;;;13.23;9.23;;;24.80;99.90;;;;;;5055833;28;20032;-70
2023/06/21 06:41:39;;;;;;;12.77;10.32;;;25.50;99.90;;;;;;5060932;28;20048;-70
2023/06/21 06:44:05;;;;;;;12.52;9.98;;;25.80;99.90;;;;;;5072278;28;20036;-70
2023/06/21 06:46:30;;;;;;;17.42;12.35;;;25.70;99.90;;;;;;5066207;28;20029;-70
2023/06/21 06:48:56;;;;;;;11.25;9.48;;;24.90;23.70;;;;;;5052624;28;20029;-69
2023/06/21 06:51:21;;;;;;;12.88;9.98;;;24.50;99.90;;;;;;5068220;28;20024;-70
2023/06/21 06:53:48;;;;;;;15.57;10.45;;;24.40;99.90;;;;;;5068371;28;20042;-69
2023/06/21 06:56:14;;;;;;;13.10;10.25;;;24.60;99.90;;;;;;5066884;28;20052;-70
2023/06/21 06:58:39;;;;;;;11.02;9.70;;;25.40;1.00;;;;;;5076354;28;20527;-70
2023/06/21 07:01:05;;;;;;;14.25;10.85;;;25.70;99.90;;;;;;5071114;28;20032;-70
2023/06/21 07:03:32;;;;;;;11.82;10.45;;;25.20;99.90;;;;;;5070767;28;20029;-70
2023/06/21 07:05:58;;;;;;;13.50;10.43;;;25.30;1.00;;;;;;5058543;28;20482;-70
2023/06/21 07:08:24;;;;;;;13.27;10.00;;;26.10;35.90;;;;;;5072522;28;20060;-70
2023/06/21 07:10:50;;;;;;;16.23;10.70;;;26.70;99.90;;;;;;5056731;28;20498;-70
2023/06/21 07:13:17;;;;;;;12.60;10.10;;;26.50;1.00;;;;;;5073048;28;20028;-69
2023/06/21 07:15:42;;;;;;;11.18;9.57;;;27.40;44.40;;;;;;5072142;28;20033;-69
2023/06/21 07:18:08;;;;;;;14.88;10.77;;;27.80;99.90;;;;;;5076546;28;20043;-70
2023/06/21 07:20:34;;;;;;;12.90;9.38;;;27.70;1.00;;;;;;5061936;28;20106;-69
2023/06/21 07:23:00;;;;;;;11.38;10.23;;;27.60;99.90;;;;;;5082296;28;20090;-69
2023/06/21 07:25:26;;;;;;;12.90;10.35;;;27.10;71.20;;;;;;5055844;28;20033;-69
2023/06/21 07:27:51;;;;;;;15.90;10.68;;;26.70;1.00;;;;;;5059831;28;20017;-69
2023/06/21 07:30:19;;;;;;;14.88;12.55;;;26.70;1.00;;;;;;5056952;28;20063;-69
2023/06/21 07:32:46;;;;;;;13.55;10.75;;;25.80;99.90;;;;;;5061763;28;20031;-70
2023/06/21 07:35:13;;;;;;;13.75;12.38;;;26.10;1.00;;;;;;5069266;28;20063;-69
2023/06/21 07:37:38;;;;;;;15.57;13.00;;;25.80;1.00;;;;;;5074917;28;20024;-69
2023/06/21 07:40:05;;;;;;;16.98;12.35;;;24.90;1.00;;;;;;5066904;28;20075;-70
2023/06/21 07:42:31;;;;;;;16.13;12.75;;;24.90;70.80;;;;;;5072054;28;20031;-69
2023/06/21 07:44:56;;;;;;;16.77;14.20;;;25.60;1.00;;;;;;5069811;28;20428;-70
2023/06/21 07:47:22;;;;;;;14.48;13.02;;;26.00;1.00;;;;;;5068166;28;20025;-69
2023/06/21 07:49:48;;;;;;;15.55;13.82;;;26.30;1.00;;;;;;5056309;28;20043;-69
2023/06/21 07:52:14;;;;;;;16.98;15.35;;;26.40;99.90;;;;;;5063226;28;20147;-70
2023/06/21 07:54:39;;;;;;;17.88;14.88;;;26.10;1.00;;;;;;5065039;28;20048;-69
2023/06/21 07:57:05;;;;;;;16.90;14.57;;;25.60;1.00;;;;;;5076897;28;20020;-69
2023/06/21 07:59:32;;;;;;;16.60;14.98;;;25.70;99.90;;;;;;5064272;28;20037;-69
2023/06/21 08:01:57;;;;;;;18.75;15.43;;;25.60;99.90;;;;;;5066223;28;20036;-69
2023/06/21 08:04:23;;;;;;;15.75;14.15;;;25.70;99.90;;;;;;5057263;28;20029;-69
2023/06/21 08:06:48;;;;;;;17.67;15.98;;;26.00;99.90;;;;;;5059367;28;20060;-69
2023/06/21 08:09:14;;;;;;;19.35;17.27;;;25.80;99.90;;;;;;5061011;28;20100;-69
2023/06/21 08:11:39;;;;;;;19.90;17.95;;;25.60;99.90;;;;;;5059689;28;20055;-69
2023/06/21 08:14:05;;;;;;;20.95;19.05;;;25.40;99.90;;;;;;5058889;28;20029;-68
2023/06/21 08:16:31;;;;;;;20.63;18.48;;;25.20;1.00;;;;;;5055124;28;20040;-69
2023/06/21 08:18:56;;;;;;;19.55;17.75;;;25.70;1.00;;;;;;5067291;28;20086;-69
2023/06/21 08:21:22;;;;;;;20.95;18.63;;;26.30;89.40;;;;;;5063277;28;20029;-68
2023/06/21 08:23:47;;;;;;;19.33;17.40;;;26.80;99.90;;;;;;5053511;28;20059;-69
2023/06/21 08:26:13;;;;;;;17.77;15.98;;;27.40;99.90;;;;;;5064268;28;20039;-69
2023/06/21 08:28:38;;;;;;;20.55;18.50;;;27.80;1.00;;;;;;5057025;28;20036;-68
2023/06/21 08:31:04;;;;;;;20.33;17.95;;;27.70;99.90;;;;;;5053434;28;20033;-69
2023/06/21 08:33:29;;;;;;;20.40;18.38;;;27.60;99.90;;;;;;5058000;28;20036;-68
2023/06/21 08:35:55;;;;;;;21.10;18.20;;;27.60;56.40;;;;;;5058801;28;20032;-70
2023/06/21 08:38:20;;;;;;;20.00;17.95;;;27.80;99.90;;;;;;5062205;28;20482;-68
2023/06/21 08:40:46;;;;;;;21.58;19.08;;;28.00;21.20;;;;;;5057837;28;20060;-68
2023/06/21 08:43:12;;;;;;;21.63;19.45;;;27.70;1.00;;;;;;5051964;28;21215;-69
2023/06/21 08:45:37;;;;;;;23.42;21.33;;;27.90;1.00;;;;;;5054256;28;20478;-69
2023/06/21 08:48:06;;;;;;;24.92;22.67;;;27.20;99.90;;;;;;5056592;28;20035;-69
2023/06/21 08:50:34;;;;;;;23.92;21.85;;;26.90;1.00;;;;;;5056216;28;20036;-69
2023/06/21 08:53:04;;;;;;;21.25;19.35;;;27.40;99.90;;;;;;5065767;28;20490;-69
2023/06/21 08:55:35;;;;;;;19.17;17.48;;;27.50;99.90;;;;;;5059840;28;20360;-68
2023/06/21 08:58:06;;;;;;;16.17;14.52;;;28.40;99.90;;;;;;5066774;28;20402;-69
2023/06/21 09:00:37;;;;;;;15.30;13.30;;;29.40;95.90;;;;;;5055585;28;20036;-69
2023/06/21 09:03:12;;;;;;;17.30;13.43;;;29.20;1.00;;;;;;5067855;28;20024;-69
2023/06/21 09:05:59;;;;;;;15.80;14.45;;;27.50;99.90;;;;;;5057970;28;20074;-69
2023/06/21 09:08:25;;;;;;;16.15;14.50;;;26.70;1.00;;;;;;5056435;28;20036;-69
2023/06/21 09:10:52;;;;;;;15.27;13.77;;;25.80;99.90;;;;;;5056530;28;20039;-69
2023/06/21 09:13:19;;;;;;;17.58;13.35;;;25.30;99.90;;;;;;5064205;28;20036;-69
2023/06/21 09:15:47;;;;;;;14.90;13.45;;;25.90;99.90;;;;;;5065398;28;20068;-69
2023/06/21 09:18:13;;;;;;;12.35;11.15;;;27.30;99.90;;;;;;5053040;28;20039;-69
2023/06/21 09:20:39;;;;;;;15.38;12.90;;;28.80;1.00;;;;;;5052320;28;20028;-69
2023/06/21 09:23:05;;;;;;;13.55;11.98;;;29.00;21.10;;;;;;5061587;28;20032;-69
2023/06/21 09:25:31;;;;;;;12.45;11.30;;;28.40;1.00;;;;;;5050611;28;20108;-69
2023/06/21 09:27:57;;;;;;;13.77;11.98;;;28.50;99.90;;;;;;5073910;28;20116;-69
2023/06/21 09:30:23;;;;;;;12.57;11.40;;;28.40;99.90;;;;;;5069893;28;20204;-68
2023/06/21 09:32:49;;;;;;;13.70;12.38;;;29.40;71.90;;;;;;5057313;28;20037;-70
2023/06/21 09:35:15;;;;;;;11.77;10.48;;;30.20;99.90;;;;;;5061089;28;20060;-69
2023/06/21 09:37:41;;;;;;;13.45;12.15;;;31.30;1.00;;;;;;5066986;28;20067;-71
2023/06/21 09:40:07;;;;;;;12.68;11.40;;;29.90;1.00;;;;;;5062193;28;20072;-69
2023/06/21 09:42:39;;;;;;;11.15;10.13;;;29.10;99.90;;;;;;5064248;28;20033;-70
2023/06/21 09:45:10;;;;;;;12.68;11.55;;;29.50;99.90;;;;;;5063569;28;20029;-71
2023/06/21 09:47:35;;;;;;;11.80;10.60;;;30.30;21.40;;;;;;5068456;28;20021;-70
2023/06/21 09:50:05;;;;;;;8.73;7.93;;;30.80;1.00;;;;;;5071516;28;20118;-69
2023/06/21 09:52:30;;;;;;;9.90;7.72;;;29.70;1.00;;;;;;5059278;28;20036;-70
2023/06/21 09:54:57;;;;;;;13.05;8.43;;;29.90;1.00;;;;;;5065532;28;20017;-71
2023/06/21 09:57:28;;;;;;;9.75;7.70;;;29.20;99.90;;;;;;5061966;28;20250;-70
2023/06/21 09:59:54;;;;;;;10.70;8.40;;;29.20;99.90;;;;;;5051059;28;20044;-70
2023/06/21 10:02:19;;;;;;;11.57;9.95;;;29.50;23.00;;;;;;5055469;28;20033;-70
2023/06/21 10:04:45;;;;;;;12.55;11.43;;;29.70;99.90;;;;;;5066783;28;20154;-70
2023/06/21 10:07:14;;;;;;;13.85;12.35;;;29.10;99.90;;;;;;5062129;28;20108;-69
2023/06/21 10:09:40;;;;;;;14.38;12.98;;;29.00;99.90;;;;;;5069305;28;20021;-69
2023/06/21 10:12:08;;;;;;;14.52;12.95;;;28.50;99.90;;;;;;5063159;28;20037;-69
2023/06/21 10:14:33;;;;;;;13.00;11.77;;;28.00;1.00;;;;;;5054745;28;20044;-69
2023/06/21 10:17:00;;;;;;;13.00;11.70;;;27.60;99.90;;;;;;5066462;28;20033;-69
2023/06/21 10:19:29;;;;;;;12.60;11.40;;;27.50;99.90;;;;;;5059236;28;20097;-70
2023/06/21 10:22:07;;;;;;;13.48;12.27;;;27.20;99.90;;;;;;5057595;28;20021;-69
2023/06/21 10:24:39;;;;;;;15.02;12.95;;;27.50;99.90;;;;;;5064621;28;20482;-69
2023/06/21 10:27:06;;;;;;;15.40;13.85;;;28.20;1.00;;;;;;5062150;28;20052;-69
2023/06/21 10:29:33;;;;;;;17.75;14.32;;;29.70;99.90;;;;;;5060459;28;20100;-70
2023/06/21 10:32:00;;;;;;;14.60;13.27;;;30.60;48.90;;;;;;5069986;28;20028;-69
2023/06/21 10:34:27;;;;;;;13.57;12.27;;;31.40;1.00;;;;;;5067769;28;20041;-70
2023/06/21 10:37:02;;;;;;;13.55;12.25;;;31.00;1.00;;;;;;5068327;28;20463;-70
2023/06/21 10:39:32;;;;;;;13.25;12.10;;;30.20;1.00;;;;;;5066184;28;20040;-71
2023/06/21 10:42:01;;;;;;;12.23;11.13;;;30.00;1.00;;;;;;5066666;28;20040;-69
2023/06/21 10:44:28;;;;;;;12.25;10.95;;;29.70;62.40;;;;;;5062140;28;20112;-71
2023/06/21 10:46:56;;;;;;;13.45;12.07;;;30.30;1.00;;;;;;5059129;28;20025;-71
2023/06/21 10:49:24;;;;;;;11.77;10.60;;;30.30;1.00;;;;;;5063175;28;20025;-71
2023/06/21 10:51:51;;;;;;;13.95;12.55;;;29.60;1.00;;;;;;5068709;28;20031;-70
2023/06/21 10:54:18;;;;;;;13.98;12.68;;;29.00;99.90;;;;;;5064990;28;20032;-70
2023/06/21 10:56:45;;;;;;;15.68;12.45;;;28.50;99.90;;;;;;5063352;28;20090;-70
2023/06/21 10:59:11;;;;;;;14.20;12.63;;;27.90;99.90;;;;;;5062307;28;20051;-70
2023/06/21 11:01:36;;;;;;;12.50;10.88;;;27.90;1.00;;;;;;5063116;28;20029;-70
2023/06/21 11:04:04;;;;;;;10.57;9.50;;;27.90;1.00;;;;;;5057775;28;20025;-71
2023/06/21 11:06:33;;;;;;;10.07;9.07;;;28.50;63.50;;;;;;5058372;28;20025;-70
2023/06/21 11:09:08;;;;;;;11.70;9.75;;;29.40;14.60;;;;;;5066809;28;20020;-70
2023/06/21 11:11:36;;;;;;;11.77;10.73;;;29.50;1.00;;;;;;5060311;28;20043;-71
2023/06/21 11:14:03;;;;;;;11.02;10.02;;;29.00;1.00;;;;;;5061314;28;20082;-70
2023/06/21 11:16:32;;;;;;;12.63;10.48;;;29.40;99.90;;;;;;5063211;28;20515;-71
2023/06/21 11:19:03;;;;;;;12.95;11.75;;;28.90;99.90;;;;;;5059315;28;20036;-70
2023/06/21 11:21:41;;;;;;;12.18;11.07;;;28.70;99.90;;;;;;5068044;28;20592;-70
2023/06/21 11:24:08;;;;;;;12.57;11.23;;;28.50;99.90;;;;;;5070772;28;20074;-70
2023/06/21 11:26:57;;;;;;;11.23;9.88;;;28.10;1.00;;;;;;5057773;28;20439;-70
2023/06/21 11:29:25;;;;;;;12.60;10.02;;;28.80;1.00;;;;;;5061216;28;20021;-69
2023/06/21 11:32:07;;;;;;;14.27;11.55;;;29.30;99.90;;;;;;5059878;28;20513;-69
2023/06/21 11:34:32;;;;;;;12.90;11.55;;;28.80;1.00;;;;;;5065108;28;20020;-70
2023/06/21 11:37:40;;;;;;;12.00;10.00;;;28.60;1.00;;;;;;5063216;28;20478;-70
2023/06/21 11:40:08;;;;;;;11.10;10.07;;;28.80;1.00;;;;;;5059159;28;20625;-70
2023/06/21 11:42:36;;;;;;;11.15;10.15;;;28.80;99.90;;;;;;5063399;28;20036;-70
2023/06/21 11:45:24;;;;;;;13.27;10.25;;;28.90;1.00;;;;;;5070038;28;20021;-70
2023/06/21 11:48:00;;;;;;;10.63;9.63;;;28.40;1.00;;;;;;5063110;28;20077;-70
2023/06/21 11:50:46;;;;;;;12.43;10.43;;;28.30;1.00;;;;;;5059987;28;20121;-70
2023/06/21 11:53:26;;;;;;;11.90;10.73;;;28.10;1.00;;;;;;5067810;28;20033;-70
2023/06/21 11:55:56;;;;;;;10.15;9.20;;;28.30;1.00;;;;;;5061143;28;20829;-70
2023/06/21 11:58:23;;;;;;;11.05;9.95;;;28.40;1.00;;;;;;5072731;28;20090;-70
2023/06/21 12:00:48;;;;;;;9.45;8.65;;;28.40;1.00;;;;;;5065890;28;20035;-70
2023/06/21 12:03:15;;;;;;;9.63;8.82;;;28.90;1.00;;;;;;5068192;28;20115;-70
2023/06/21 12:05:51;;;;;;;9.57;8.77;;;28.60;99.90;;;;;;5062833;28;20032;-70
2023/06/21 12:08:18;;;;;;;8.98;8.18;;;28.70;99.90;;;;;;5063369;28;20493;-70
2023/06/21 12:10:45;;;;;;;9.38;8.38;;;28.30;99.90;;;;;;5074312;28;20040;-71
2023/06/21 12:13:13;;;;;;;10.13;9.13;;;28.30;1.00;;;;;;5071560;28;20036;-70
2023/06/21 12:15:44;;;;;;;14.20;9.70;;;28.30;1.00;;;;;;5071048;28;20028;-70
2023/06/21 12:18:12;;;;;;;10.90;9.90;;;28.10;1.00;;;;;;5065561;28;20028;-70
2023/06/21 12:20:38;;;;;;;11.07;10.05;;;27.80;1.00;;;;;;5071388;28;20062;-70
2023/06/21 12:23:07;;;;;;;11.20;9.57;;;27.60;1.00;;;;;;5062768;28;20024;-70
2023/06/21 12:25:41;;;;;;;10.05;9.05;;;27.40;1.00;;;;;;5057886;28;20040;-70
2023/06/21 12:28:07;;;;;;;9.00;7.93;;;27.70;1.00;;;;;;5056124;28;20021;-70
2023/06/21 12:30:33;;;;;;;11.10;9.82;;;27.70;99.90;;;;;;5071356;28;20171;-70
2023/06/21 12:32:58;;;;;;;10.18;9.27;;;28.00;1.00;;;;;;5065537;28;20035;-70
2023/06/21 12:35:24;;;;;;;14.15;9.88;;;28.50;99.90;;;;;;5069890;28;20025;-70